sensor_id;sensor_type;location;lat;lon;timestamp;P1;durP1;ratioP1;P2;durP2;ratioP2
17696;SDS011;8967;47.984;7.842;2022-10-19T00:01:55;8.30;;;3.28;;
17696;SDS011;8967;47.984;7.842;2022-10-19T00:04:22;7.38;;;3.22;;
17696;SDS011;8967;47.984;7.842;2022-10-19T00:06:48;8.27;;;2.97;;
17696;SDS011;8967;47.984;7.842;2022-10-19T00:09:17;5.72;;;3.28;;
17696;SDS011;8967;47.984;7.842;2022-10-19T00:11:47;8.52;;;3.10;;
17696;SDS011;8967;47.984;7.842;2022-10-19T00:14:15;9.90;;;3.75;;
17696;SDS011;8967;47.984;7.842;2022-10-19T00:16:44;12.90;;;3.30;;
17696;SDS011;8967;47.984;7.842;2022-10-19T00:19:16;6.35;;;2.88;;
17696;SDS011;8967;47.984;7.842;2022-10-19T00:21:44;4.97;;;2.70;;
17696;SDS011;8967;47.984;7.842;2022-10-19T00:24:11;6.68;;;3.15;;
17696;SDS011;8967;47.984;7.842;2022-10-19T00:26:38;10.18;;;3.22;;
17696;SDS011;8967;47.984;7.842;2022-10-19T00:29:07;7.70;;;2.88;;
17696;SDS011;8967;47.984;7.842;2022-10-19T00:31:35;3.72;;;2.83;;
17696;SDS011;8967;47.984;7.842;2022-10-19T00:34:02;9.32;;;3.40;;
17696;SDS011;8967;47.984;7.842;2022-10-19T00:36:30;8.25;;;3.25;;
17696;SDS011;8967;47.984;7.842;2022-10-19T00:38:59;5.30;;;3.25;;
17696;SDS011;8967;47.984;7.842;2022-10-19T00:41:29;11.23;;;3.28;;
17696;SDS011;8967;47.984;7.842;2022-10-19T00:43:58;7.32;;;2.90;;
17696;SDS011;8967;47.984;7.842;2022-10-19T00:46:29;11.55;;;3.30;;
17696;SDS011;8967;47.984;7.842;2022-10-19T00:48:57;9.95;;;2.97;;
17696;SDS011;8967;47.984;7.842;2022-10-19T00:51:27;7.75;;;2.70;;
17696;SDS011;8967;47.984;7.842;2022-10-19T00:53:56;13.40;;;3.03;;
17696;SDS011;8967;47.984;7.842;2022-10-19T00:56:23;15.63;;;3.10;;
17696;SDS011;8967;47.984;7.842;2022-10-19T00:58:50;5.25;;;2.78;;
17696;SDS011;8967;47.984;7.842;2022-10-19T01:01:18;11.93;;;2.75;;
17696;SDS011;8967;47.984;7.842;2022-10-19T01:03:48;14.88;;;3.78;;
17696;SDS011;8967;47.984;7.842;2022-10-19T01:06:15;8.80;;;2.80;;
17696;SDS011;8967;47.984;7.842;2022-10-19T01:08:43;12.90;;;3.15;;
17696;SDS011;8967;47.984;7.842;2022-10-19T01:11:14;13.63;;;3.50;;
17696;SDS011;8967;47.984;7.842;2022-10-19T01:13:52;7.38;;;3.10;;
17696;SDS011;8967;47.984;7.842;2022-10-19T01:16:27;5.95;;;2.42;;
17696;SDS011;8967;47.984;7.842;2022-10-19T01:19:08;7.35;;;2.70;;
17696;SDS011;8967;47.984;7.842;2022-10-19T01:22:00;7.93;;;3.40;;
17696;SDS011;8967;47.984;7.842;2022-10-19T01:24:43;7.07;;;2.78;;
17696;SDS011;8967;47.984;7.842;2022-10-19T01:27:33;6.53;;;2.67;;
17696;SDS011;8967;47.984;7.842;2022-10-19T01:30:09;12.48;;;3.05;;
17696;SDS011;8967;47.984;7.842;2022-10-19T01:32:47;8.63;;;3.10;;
17696;SDS011;8967;47.984;7.842;2022-10-19T01:35:25;6.78;;;3.20;;
17696;SDS011;8967;47.984;7.842;2022-10-19T01:38:10;5.60;;;2.85;;
17696;SDS011;8967;47.984;7.842;2022-10-19T01:40:48;8.55;;;3.10;;
17696;SDS011;8967;47.984;7.842;2022-10-19T01:43:22;10.63;;;3.65;;
17696;SDS011;8967;47.984;7.842;2022-10-19T01:46:03;6.40;;;2.83;;
17696;SDS011;8967;47.984;7.842;2022-10-19T01:48:37;7.10;;;2.60;;
17696;SDS011;8967;47.984;7.842;2022-10-19T01:51:09;8.60;;;2.60;;
17696;SDS011;8967;47.984;7.842;2022-10-19T01:53:42;4.88;;;2.72;;
17696;SDS011;8967;47.984;7.842;2022-10-19T01:56:20;9.30;;;2.90;;
17696;SDS011;8967;47.984;7.842;2022-10-19T01:58:50;9.35;;;2.42;;
17696;SDS011;8967;47.984;7.842;2022-10-19T02:01:20;8.63;;;2.35;;
17696;SDS011;8967;47.984;7.842;2022-10-19T02:03:49;4.75;;;2.83;;
17696;SDS011;8967;47.984;7.842;2022-10-19T02:06:20;8.65;;;2.53;;
17696;SDS011;8967;47.984;7.842;2022-10-19T02:08:48;8.85;;;2.97;;
17696;SDS011;8967;47.984;7.842;2022-10-19T02:11:17;8.38;;;2.88;;
17696;SDS011;8967;47.984;7.842;2022-10-19T02:13:47;4.03;;;2.47;;
17696;SDS011;8967;47.984;7.842;2022-10-19T02:16:18;5.82;;;2.60;;
17696;SDS011;8967;47.984;7.842;2022-10-19T02:18:49;7.45;;;2.78;;
17696;SDS011;8967;47.984;7.842;2022-10-19T02:21:19;9.02;;;2.92;;
17696;SDS011;8967;47.984;7.842;2022-10-19T02:23:47;5.40;;;2.70;;
17696;SDS011;8967;47.984;7.842;2022-10-19T02:26:13;11.18;;;3.00;;
17696;SDS011;8967;47.984;7.842;2022-10-19T02:28:40;5.18;;;2.70;;
17696;SDS011;8967;47.984;7.842;2022-10-19T02:31:09;7.93;;;3.40;;
17696;SDS011;8967;47.984;7.842;2022-10-19T02:33:38;4.68;;;2.28;;
17696;SDS011;8967;47.984;7.842;2022-10-19T02:36:05;7.55;;;2.50;;
17696;SDS011;8967;47.984;7.842;2022-10-19T02:38:32;5.25;;;3.03;;
17696;SDS011;8967;47.984;7.842;2022-10-19T02:41:02;6.32;;;2.70;;
17696;SDS011;8967;47.984;7.842;2022-10-19T02:43:32;6.57;;;3.08;;
17696;SDS011;8967;47.984;7.842;2022-10-19T02:46:03;3.83;;;2.53;;
17696;SDS011;8967;47.984;7.842;2022-10-19T02:48:37;4.07;;;2.65;;
17696;SDS011;8967;47.984;7.842;2022-10-19T02:53:52;9.43;;;2.70;;
17696;SDS011;8967;47.984;7.842;2022-10-19T02:56:18;6.20;;;2.47;;
17696;SDS011;8967;47.984;7.842;2022-10-19T02:58:46;11.77;;;3.40;;
17696;SDS011;8967;47.984;7.842;2022-10-19T03:01:12;8.60;;;3.13;;
17696;SDS011;8967;47.984;7.842;2022-10-19T03:03:41;4.13;;;2.75;;
17696;SDS011;8967;47.984;7.842;2022-10-19T03:06:08;5.40;;;3.15;;
17696;SDS011;8967;47.984;7.842;2022-10-19T03:08:35;7.68;;;3.22;;
17696;SDS011;8967;47.984;7.842;2022-10-19T03:11:02;7.65;;;3.38;;
17696;SDS011;8967;47.984;7.842;2022-10-19T03:13:29;11.63;;;3.75;;
17696;SDS011;8967;47.984;7.842;2022-10-19T03:15:56;4.53;;;3.22;;
17696;SDS011;8967;47.984;7.842;2022-10-19T03:18:23;13.40;;;3.42;;
17696;SDS011;8967;47.984;7.842;2022-10-19T03:20:59;6.85;;;3.42;;
17696;SDS011;8967;47.984;7.842;2022-10-19T03:23:28;9.25;;;4.20;;
17696;SDS011;8967;47.984;7.842;2022-10-19T03:25:55;10.15;;;4.32;;
17696;SDS011;8967;47.984;7.842;2022-10-19T03:28:21;8.48;;;4.30;;
17696;SDS011;8967;47.984;7.842;2022-10-19T03:30:49;15.38;;;5.53;;
17696;SDS011;8967;47.984;7.842;2022-10-19T03:33:16;19.80;;;6.55;;
17696;SDS011;8967;47.984;7.842;2022-10-19T03:35:45;12.52;;;4.97;;
17696;SDS011;8967;47.984;7.842;2022-10-19T03:38:16;16.17;;;5.13;;
17696;SDS011;8967;47.984;7.842;2022-10-19T03:40:43;11.93;;;5.38;;
17696;SDS011;8967;47.984;7.842;2022-10-19T03:43:12;12.15;;;5.43;;
17696;SDS011;8967;47.984;7.842;2022-10-19T03:45:38;16.23;;;5.47;;
17696;SDS011;8967;47.984;7.842;2022-10-19T03:48:05;13.98;;;5.65;;
17696;SDS011;8967;47.984;7.842;2022-10-19T03:50:35;13.80;;;5.78;;
17696;SDS011;8967;47.984;7.842;2022-10-19T03:53:02;16.45;;;7.18;;
17696;SDS011;8967;47.984;7.842;2022-10-19T03:55:30;17.17;;;6.20;;
17696;SDS011;8967;47.984;7.842;2022-10-19T03:57:57;14.93;;;6.57;;
17696;SDS011;8967;47.984;7.842;2022-10-19T04:00:24;15.90;;;6.50;;
17696;SDS011;8967;47.984;7.842;2022-10-19T04:02:51;10.75;;;6.43;;
17696;SDS011;8967;47.984;7.842;2022-10-19T04:05:18;13.65;;;6.20;;
17696;SDS011;8967;47.984;7.842;2022-10-19T04:07:45;10.35;;;5.60;;
17696;SDS011;8967;47.984;7.842;2022-10-19T04:10:12;11.68;;;6.53;;
17696;SDS011;8967;47.984;7.842;2022-10-19T04:12:40;8.45;;;4.95;;
17696;SDS011;8967;47.984;7.842;2022-10-19T04:15:09;17.77;;;5.72;;
17696;SDS011;8967;47.984;7.842;2022-10-19T04:17:36;6.72;;;5.05;;
17696;SDS011;8967;47.984;7.842;2022-10-19T04:20:03;8.23;;;5.55;;
17696;SDS011;8967;47.984;7.842;2022-10-19T04:22:31;13.48;;;5.68;;
17696;SDS011;8967;47.984;7.842;2022-10-19T04:24:58;11.07;;;5.82;;
17696;SDS011;8967;47.984;7.842;2022-10-19T04:27:25;9.65;;;6.15;;
17696;SDS011;8967;47.984;7.842;2022-10-19T04:29:53;17.80;;;6.32;;
17696;SDS011;8967;47.984;7.842;2022-10-19T04:32:20;12.48;;;6.15;;
17696;SDS011;8967;47.984;7.842;2022-10-19T04:34:47;16.50;;;6.93;;
17696;SDS011;8967;47.984;7.842;2022-10-19T04:37:14;10.88;;;6.75;;
17696;SDS011;8967;47.984;7.842;2022-10-19T04:39:41;14.23;;;7.28;;
17696;SDS011;8967;47.984;7.842;2022-10-19T04:42:08;17.00;;;6.60;;
17696;SDS011;8967;47.984;7.842;2022-10-19T04:44:35;17.98;;;6.68;;
17696;SDS011;8967;47.984;7.842;2022-10-19T04:47:06;11.32;;;6.35;;
17696;SDS011;8967;47.984;7.842;2022-10-19T04:49:33;13.32;;;6.35;;
17696;SDS011;8967;47.984;7.842;2022-10-19T04:52:00;12.60;;;5.95;;
17696;SDS011;8967;47.984;7.842;2022-10-19T04:54:27;17.52;;;6.80;;
17696;SDS011;8967;47.984;7.842;2022-10-19T04:56:54;8.18;;;6.00;;
17696;SDS011;8967;47.984;7.842;2022-10-19T04:59:23;12.15;;;6.38;;
17696;SDS011;8967;47.984;7.842;2022-10-19T05:01:50;13.85;;;5.82;;
17696;SDS011;8967;47.984;7.842;2022-10-19T05:04:18;14.95;;;6.45;;
17696;SDS011;8967;47.984;7.842;2022-10-19T05:06:45;13.07;;;5.57;;
17696;SDS011;8967;47.984;7.842;2022-10-19T05:09:12;9.90;;;5.55;;
17696;SDS011;8967;47.984;7.842;2022-10-19T05:11:39;10.10;;;5.97;;
17696;SDS011;8967;47.984;7.842;2022-10-19T05:14:06;12.30;;;5.68;;
17696;SDS011;8967;47.984;7.842;2022-10-19T05:16:33;15.93;;;6.78;;
17696;SDS011;8967;47.984;7.842;2022-10-19T05:18:59;12.88;;;6.45;;
17696;SDS011;8967;47.984;7.842;2022-10-19T05:21:28;10.32;;;6.30;;
17696;SDS011;8967;47.984;7.842;2022-10-19T05:23:55;13.50;;;6.53;;
17696;SDS011;8967;47.984;7.842;2022-10-19T05:26:24;12.23;;;6.18;;
17696;SDS011;8967;47.984;7.842;2022-10-19T05:28:53;16.30;;;7.00;;
17696;SDS011;8967;47.984;7.842;2022-10-19T05:31:23;14.13;;;7.70;;
17696;SDS011;8967;47.984;7.842;2022-10-19T05:33:51;12.35;;;7.20;;
17696;SDS011;8967;47.984;7.842;2022-10-19T05:36:21;14.05;;;6.90;;
17696;SDS011;8967;47.984;7.842;2022-10-19T05:38:54;9.00;;;7.15;;
17696;SDS011;8967;47.984;7.842;2022-10-19T05:41:24;16.23;;;8.00;;
17696;SDS011;8967;47.984;7.842;2022-10-19T05:43:52;15.07;;;6.85;;
17696;SDS011;8967;47.984;7.842;2022-10-19T05:46:20;18.33;;;7.32;;
17696;SDS011;8967;47.984;7.842;2022-10-19T05:48:48;24.25;;;7.57;;
17696;SDS011;8967;47.984;7.842;2022-10-19T05:51:18;13.32;;;6.75;;
17696;SDS011;8967;47.984;7.842;2022-10-19T05:53:46;13.93;;;7.05;;
17696;SDS011;8967;47.984;7.842;2022-10-19T05:56:15;20.88;;;6.63;;
17696;SDS011;8967;47.984;7.842;2022-10-19T05:58:43;9.75;;;5.20;;
17696;SDS011;8967;47.984;7.842;2022-10-19T06:01:11;13.77;;;6.80;;
17696;SDS011;8967;47.984;7.842;2022-10-19T06:03:39;15.73;;;7.22;;
17696;SDS011;8967;47.984;7.842;2022-10-19T06:06:07;18.73;;;6.97;;
17696;SDS011;8967;47.984;7.842;2022-10-19T06:08:35;28.55;;;7.43;;
17696;SDS011;8967;47.984;7.842;2022-10-19T06:11:03;15.50;;;6.97;;
17696;SDS011;8967;47.984;7.842;2022-10-19T06:13:32;18.42;;;6.57;;
17696;SDS011;8967;47.984;7.842;2022-10-19T06:15:59;13.10;;;6.50;;
17696;SDS011;8967;47.984;7.842;2022-10-19T06:18:26;12.27;;;6.28;;
17696;SDS011;8967;47.984;7.842;2022-10-19T06:20:53;10.38;;;6.32;;
17696;SDS011;8967;47.984;7.842;2022-10-19T06:23:20;10.38;;;5.93;;
17696;SDS011;8967;47.984;7.842;2022-10-19T06:25:47;6.80;;;5.70;;
17696;SDS011;8967;47.984;7.842;2022-10-19T06:28:14;25.02;;;6.57;;
17696;SDS011;8967;47.984;7.842;2022-10-19T06:30:42;7.70;;;6.20;;
17696;SDS011;8967;47.984;7.842;2022-10-19T06:33:09;8.15;;;6.00;;
17696;SDS011;8967;47.984;7.842;2022-10-19T06:35:39;9.20;;;6.15;;
17696;SDS011;8967;47.984;7.842;2022-10-19T06:38:07;9.00;;;5.60;;
17696;SDS011;8967;47.984;7.842;2022-10-19T06:40:34;9.98;;;5.75;;
17696;SDS011;8967;47.984;7.842;2022-10-19T06:43:03;10.65;;;6.20;;
17696;SDS011;8967;47.984;7.842;2022-10-19T06:45:33;9.00;;;6.07;;
17696;SDS011;8967;47.984;7.842;2022-10-19T06:48:03;8.98;;;6.25;;
17696;SDS011;8967;47.984;7.842;2022-10-19T06:50:31;11.50;;;7.22;;
17696;SDS011;8967;47.984;7.842;2022-10-19T06:52:58;16.98;;;7.30;;
17696;SDS011;8967;47.984;7.842;2022-10-19T06:55:25;13.05;;;7.40;;
17696;SDS011;8967;47.984;7.842;2022-10-19T06:57:52;12.68;;;6.90;;
17696;SDS011;8967;47.984;7.842;2022-10-19T07:00:19;13.65;;;7.80;;
17696;SDS011;8967;47.984;7.842;2022-10-19T07:02:46;13.15;;;7.65;;
17696;SDS011;8967;47.984;7.842;2022-10-19T07:05:14;10.77;;;7.40;;
17696;SDS011;8967;47.984;7.842;2022-10-19T07:07:43;9.52;;;6.88;;
17696;SDS011;8967;47.984;7.842;2022-10-19T07:10:10;13.85;;;8.13;;
17696;SDS011;8967;47.984;7.842;2022-10-19T07:12:37;17.27;;;8.43;;
17696;SDS011;8967;47.984;7.842;2022-10-19T07:15:05;12.15;;;7.20;;
17696;SDS011;8967;47.984;7.842;2022-10-19T07:17:32;13.52;;;8.15;;
17696;SDS011;8967;47.984;7.842;2022-10-19T07:19:59;11.20;;;7.18;;
17696;SDS011;8967;47.984;7.842;2022-10-19T07:22:30;11.73;;;6.82;;
17696;SDS011;8967;47.984;7.842;2022-10-19T07:24:57;15.70;;;7.72;;
17696;SDS011;8967;47.984;7.842;2022-10-19T07:27:24;8.95;;;6.38;;
17696;SDS011;8967;47.984;7.842;2022-10-19T07:29:50;9.20;;;5.97;;
17696;SDS011;8967;47.984;7.842;2022-10-19T07:32:17;10.95;;;6.93;;
17696;SDS011;8967;47.984;7.842;2022-10-19T07:34:46;11.65;;;7.53;;
17696;SDS011;8967;47.984;7.842;2022-10-19T07:37:14;13.30;;;7.70;;
17696;SDS011;8967;47.984;7.842;2022-10-19T07:39:42;9.70;;;7.43;;
17696;SDS011;8967;47.984;7.842;2022-10-19T07:42:09;16.25;;;7.45;;
17696;SDS011;8967;47.984;7.842;2022-10-19T07:44:36;13.52;;;8.27;;
17696;SDS011;8967;47.984;7.842;2022-10-19T07:47:03;9.98;;;7.35;;
17696;SDS011;8967;47.984;7.842;2022-10-19T07:49:30;13.25;;;9.07;;
17696;SDS011;8967;47.984;7.842;2022-10-19T07:51:57;15.60;;;9.20;;
17696;SDS011;8967;47.984;7.842;2022-10-19T07:54:24;16.00;;;9.77;;
17696;SDS011;8967;47.984;7.842;2022-10-19T07:56:55;13.60;;;8.70;;
17696;SDS011;8967;47.984;7.842;2022-10-19T07:59:22;12.73;;;7.50;;
17696;SDS011;8967;47.984;7.842;2022-10-19T08:01:49;13.10;;;8.20;;
17696;SDS011;8967;47.984;7.842;2022-10-19T08:04:19;12.88;;;8.30;;
17696;SDS011;8967;47.984;7.842;2022-10-19T08:06:46;11.93;;;7.22;;
17696;SDS011;8967;47.984;7.842;2022-10-19T08:09:13;11.48;;;7.85;;
17696;SDS011;8967;47.984;7.842;2022-10-19T08:11:41;11.70;;;6.80;;
17696;SDS011;8967;47.984;7.842;2022-10-19T08:14:09;8.43;;;6.75;;
17696;SDS011;8967;47.984;7.842;2022-10-19T08:16:36;9.38;;;6.47;;
17696;SDS011;8967;47.984;7.842;2022-10-19T08:19:06;12.52;;;7.55;;
17696;SDS011;8967;47.984;7.842;2022-10-19T08:21:34;11.25;;;7.80;;
17696;SDS011;8967;47.984;7.842;2022-10-19T08:24:02;9.63;;;7.15;;
17696;SDS011;8967;47.984;7.842;2022-10-19T08:26:29;9.98;;;6.47;;
17696;SDS011;8967;47.984;7.842;2022-10-19T08:28:58;9.18;;;6.55;;
17696;SDS011;8967;47.984;7.842;2022-10-19T08:31:27;10.10;;;7.20;;
17696;SDS011;8967;47.984;7.842;2022-10-19T08:33:54;8.65;;;6.45;;
17696;SDS011;8967;47.984;7.842;2022-10-19T08:36:21;9.13;;;6.90;;
17696;SDS011;8967;47.984;7.842;2022-10-19T08:38:49;9.55;;;6.60;;
17696;SDS011;8967;47.984;7.842;2022-10-19T08:41:20;14.07;;;7.20;;
17696;SDS011;8967;47.984;7.842;2022-10-19T08:43:55;10.82;;;6.82;;
17696;SDS011;8967;47.984;7.842;2022-10-19T08:46:36;12.30;;;8.02;;
17696;SDS011;8967;47.984;7.842;2022-10-19T08:49:11;9.52;;;6.60;;
17696;SDS011;8967;47.984;7.842;2022-10-19T08:51:44;12.63;;;6.88;;
17696;SDS011;8967;47.984;7.842;2022-10-19T08:54:15;10.38;;;7.80;;
17696;SDS011;8967;47.984;7.842;2022-10-19T08:56:47;13.52;;;7.05;;
17696;SDS011;8967;47.984;7.842;2022-10-19T08:59:25;10.35;;;7.82;;
17696;SDS011;8967;47.984;7.842;2022-10-19T09:02:00;11.52;;;7.13;;
17696;SDS011;8967;47.984;7.842;2022-10-19T09:04:31;10.23;;;7.20;;
17696;SDS011;8967;47.984;7.842;2022-10-19T09:07:08;11.73;;;7.88;;
17696;SDS011;8967;47.984;7.842;2022-10-19T09:09:48;10.32;;;7.00;;
17696;SDS011;8967;47.984;7.842;2022-10-19T09:12:18;11.40;;;7.13;;
17696;SDS011;8967;47.984;7.842;2022-10-19T09:14:52;12.15;;;7.30;;
17696;SDS011;8967;47.984;7.842;2022-10-19T09:17:26;13.88;;;7.00;;
17696;SDS011;8967;47.984;7.842;2022-10-19T09:20:00;10.00;;;6.53;;
17696;SDS011;8967;47.984;7.842;2022-10-19T09:22:39;14.60;;;9.27;;
17696;SDS011;8967;47.984;7.842;2022-10-19T09:25:12;12.35;;;7.45;;
17696;SDS011;8967;47.984;7.842;2022-10-19T09:27:42;10.18;;;6.53;;
17696;SDS011;8967;47.984;7.842;2022-10-19T09:30:14;13.93;;;7.10;;
17696;SDS011;8967;47.984;7.842;2022-10-19T09:32:45;11.32;;;6.95;;
17696;SDS011;8967;47.984;7.842;2022-10-19T09:35:20;10.45;;;7.38;;
17696;SDS011;8967;47.984;7.842;2022-10-19T09:37:52;14.35;;;7.10;;
17696;SDS011;8967;47.984;7.842;2022-10-19T09:40:21;8.50;;;6.65;;
17696;SDS011;8967;47.984;7.842;2022-10-19T09:42:49;10.23;;;6.25;;
17696;SDS011;8967;47.984;7.842;2022-10-19T09:45:25;8.40;;;7.03;;
17696;SDS011;8967;47.984;7.842;2022-10-19T09:48:02;7.50;;;6.22;;
17696;SDS011;8967;47.984;7.842;2022-10-19T09:50:41;10.20;;;6.82;;
17696;SDS011;8967;47.984;7.842;2022-10-19T09:53:14;10.32;;;6.97;;
17696;SDS011;8967;47.984;7.842;2022-10-19T09:55:44;11.50;;;7.10;;
17696;SDS011;8967;47.984;7.842;2022-10-19T09:58:17;11.90;;;7.85;;
17696;SDS011;8967;47.984;7.842;2022-10-19T10:00:45;10.25;;;7.45;;
17696;SDS011;8967;47.984;7.842;2022-10-19T10:03:24;9.88;;;7.20;;
17696;SDS011;8967;47.984;7.842;2022-10-19T10:05:53;8.30;;;5.85;;
17696;SDS011;8967;47.984;7.842;2022-10-19T10:08:23;8.70;;;6.57;;
17696;SDS011;8967;47.984;7.842;2022-10-19T10:10:53;7.72;;;6.32;;
17696;SDS011;8967;47.984;7.842;2022-10-19T10:13:34;7.82;;;6.15;;
17696;SDS011;8967;47.984;7.842;2022-10-19T10:16:04;12.18;;;7.93;;
17696;SDS011;8967;47.984;7.842;2022-10-19T10:18:36;11.23;;;7.43;;
17696;SDS011;8967;47.984;7.842;2022-10-19T10:21:11;11.57;;;7.38;;
17696;SDS011;8967;47.984;7.842;2022-10-19T10:23:45;9.80;;;8.05;;
17696;SDS011;8967;47.984;7.842;2022-10-19T10:26:25;10.63;;;7.18;;
17696;SDS011;8967;47.984;7.842;2022-10-19T10:28:52;14.15;;;8.38;;
17696;SDS011;8967;47.984;7.842;2022-10-19T10:31:21;11.88;;;8.18;;
17696;SDS011;8967;47.984;7.842;2022-10-19T10:33:54;13.70;;;8.25;;
17696;SDS011;8967;47.984;7.842;2022-10-19T10:36:26;12.10;;;8.05;;
17696;SDS011;8967;47.984;7.842;2022-10-19T10:38:55;13.55;;;8.32;;
17696;SDS011;8967;47.984;7.842;2022-10-19T10:41:28;9.75;;;7.07;;
17696;SDS011;8967;47.984;7.842;2022-10-19T10:43:57;13.40;;;9.30;;
17696;SDS011;8967;47.984;7.842;2022-10-19T10:46:31;12.32;;;7.70;;
17696;SDS011;8967;47.984;7.842;2022-10-19T10:49:03;14.13;;;8.98;;
17696;SDS011;8967;47.984;7.842;2022-10-19T10:51:32;12.98;;;8.80;;
17696;SDS011;8967;47.984;7.842;2022-10-19T10:54:13;13.77;;;9.35;;
17696;SDS011;8967;47.984;7.842;2022-10-19T10:56:53;17.85;;;10.68;;
17696;SDS011;8967;47.984;7.842;2022-10-19T10:59:29;20.55;;;9.75;;
17696;SDS011;8967;47.984;7.842;2022-10-19T11:02:00;18.60;;;9.88;;
17696;SDS011;8967;47.984;7.842;2022-10-19T11:04:30;13.88;;;9.35;;
17696;SDS011;8967;47.984;7.842;2022-10-19T11:07:03;14.10;;;9.98;;
17696;SDS011;8967;47.984;7.842;2022-10-19T11:09:42;14.77;;;9.82;;
17696;SDS011;8967;47.984;7.842;2022-10-19T11:12:16;15.05;;;9.43;;
17696;SDS011;8967;47.984;7.842;2022-10-19T11:14:50;17.85;;;10.23;;
17696;SDS011;8967;47.984;7.842;2022-10-19T11:17:23;18.35;;;11.10;;
17696;SDS011;8967;47.984;7.842;2022-10-19T11:19:58;17.05;;;9.13;;
17696;SDS011;8967;47.984;7.842;2022-10-19T11:22:25;11.82;;;9.07;;
17696;SDS011;8967;47.984;7.842;2022-10-19T11:25:02;12.93;;;8.77;;
17696;SDS011;8967;47.984;7.842;2022-10-19T11:27:46;12.85;;;9.02;;
17696;SDS011;8967;47.984;7.842;2022-10-19T11:30:21;13.10;;;9.70;;
17696;SDS011;8967;47.984;7.842;2022-10-19T11:32:57;11.63;;;8.63;;
17696;SDS011;8967;47.984;7.842;2022-10-19T11:35:33;17.48;;;9.73;;
17696;SDS011;8967;47.984;7.842;2022-10-19T11:38:21;13.40;;;9.48;;
17696;SDS011;8967;47.984;7.842;2022-10-19T11:41:05;11.10;;;7.90;;
17696;SDS011;8967;47.984;7.842;2022-10-19T11:43:41;11.38;;;7.18;;
17696;SDS011;8967;47.984;7.842;2022-10-19T11:46:19;10.38;;;8.07;;
17696;SDS011;8967;47.984;7.842;2022-10-19T11:48:58;10.40;;;7.78;;
17696;SDS011;8967;47.984;7.842;2022-10-19T11:51:42;10.15;;;7.88;;
17696;SDS011;8967;47.984;7.842;2022-10-19T11:54:20;15.90;;;9.68;;
17696;SDS011;8967;47.984;7.842;2022-10-19T11:57:02;12.23;;;8.35;;
17696;SDS011;8967;47.984;7.842;2022-10-19T11:59:37;15.20;;;9.52;;
17696;SDS011;8967;47.984;7.842;2022-10-19T12:02:23;10.70;;;8.15;;
17696;SDS011;8967;47.984;7.842;2022-10-19T12:05:20;10.00;;;8.00;;
17696;SDS011;8967;47.984;7.842;2022-10-19T12:07:58;11.77;;;8.93;;
17696;SDS011;8967;47.984;7.842;2022-10-19T12:10:32;10.82;;;8.40;;
17696;SDS011;8967;47.984;7.842;2022-10-19T12:13:07;11.93;;;8.57;;
17696;SDS011;8967;47.984;7.842;2022-10-19T12:15:38;16.10;;;10.13;;
17696;SDS011;8967;47.984;7.842;2022-10-19T12:18:11;17.50;;;12.00;;
17696;SDS011;8967;47.984;7.842;2022-10-19T12:20:45;14.55;;;9.52;;
17696;SDS011;8967;47.984;7.842;2022-10-19T12:23:22;16.10;;;11.20;;
17696;SDS011;8967;47.984;7.842;2022-10-19T12:25:53;14.65;;;10.10;;
17696;SDS011;8967;47.984;7.842;2022-10-19T12:28:23;14.15;;;9.45;;
17696;SDS011;8967;47.984;7.842;2022-10-19T12:30:54;22.02;;;11.85;;
17696;SDS011;8967;47.984;7.842;2022-10-19T12:33:22;18.45;;;11.52;;
17696;SDS011;8967;47.984;7.842;2022-10-19T12:35:57;14.63;;;10.57;;
17696;SDS011;8967;47.984;7.842;2022-10-19T12:38:41;14.25;;;10.60;;
17696;SDS011;8967;47.984;7.842;2022-10-19T12:41:18;16.15;;;10.60;;
17696;SDS011;8967;47.984;7.842;2022-10-19T12:43:54;15.98;;;10.45;;
17696;SDS011;8967;47.984;7.842;2022-10-19T12:46:34;13.23;;;9.10;;
17696;SDS011;8967;47.984;7.842;2022-10-19T12:52:10;17.42;;;11.40;;
17696;SDS011;8967;47.984;7.842;2022-10-19T12:54:40;18.20;;;11.23;;
17696;SDS011;8967;47.984;7.842;2022-10-19T12:57:23;15.73;;;10.95;;
17696;SDS011;8967;47.984;7.842;2022-10-19T12:59:58;21.83;;;12.98;;
17696;SDS011;8967;47.984;7.842;2022-10-19T13:02:28;17.42;;;12.45;;
17696;SDS011;8967;47.984;7.842;2022-10-19T13:04:56;17.20;;;11.27;;
17696;SDS011;8967;47.984;7.842;2022-10-19T13:07:24;20.10;;;12.77;;
17696;SDS011;8967;47.984;7.842;2022-10-19T13:09:59;19.35;;;13.43;;
17696;SDS011;8967;47.984;7.842;2022-10-19T13:12:40;16.63;;;11.50;;
17696;SDS011;8967;47.984;7.842;2022-10-19T13:21:44;18.73;;;11.18;;
17696;SDS011;8967;47.984;7.842;2022-10-19T13:29:52;20.95;;;11.88;;
17696;SDS011;8967;47.984;7.842;2022-10-19T13:32:29;17.30;;;11.30;;
17696;SDS011;8967;47.984;7.842;2022-10-19T13:38:18;24.77;;;15.63;;
17696;SDS011;8967;47.984;7.842;2022-10-19T13:41:00;20.10;;;13.55;;
17696;SDS011;8967;47.984;7.842;2022-10-19T13:43:32;18.13;;;12.38;;
17696;SDS011;8967;47.984;7.842;2022-10-19T13:46:11;17.80;;;11.77;;
17696;SDS011;8967;47.984;7.842;2022-10-19T13:48:48;16.05;;;11.98;;
17696;SDS011;8967;47.984;7.842;2022-10-19T13:51:47;21.35;;;14.20;;
17696;SDS011;8967;47.984;7.842;2022-10-19T13:54:29;28.48;;;15.05;;
17696;SDS011;8967;47.984;7.842;2022-10-19T13:57:17;17.67;;;12.32;;
17696;SDS011;8967;47.984;7.842;2022-10-19T13:59:57;24.08;;;12.48;;
17696;SDS011;8967;47.984;7.842;2022-10-19T14:02:52;17.65;;;11.90;;
17696;SDS011;8967;47.984;7.842;2022-10-19T14:05:44;17.63;;;11.43;;
17696;SDS011;8967;47.984;7.842;2022-10-19T14:11:11;25.73;;;12.68;;
17696;SDS011;8967;47.984;7.842;2022-10-19T14:13:40;15.23;;;10.75;;
17696;SDS011;8967;47.984;7.842;2022-10-19T14:16:15;17.38;;;10.95;;
17696;SDS011;8967;47.984;7.842;2022-10-19T14:18:51;15.80;;;10.43;;
17696;SDS011;8967;47.984;7.842;2022-10-19T14:21:27;14.23;;;9.90;;
17696;SDS011;8967;47.984;7.842;2022-10-19T14:23:56;14.35;;;9.23;;
17696;SDS011;8967;47.984;7.842;2022-10-19T14:26:23;15.60;;;10.40;;
17696;SDS011;8967;47.984;7.842;2022-10-19T14:28:56;19.38;;;12.95;;
17696;SDS011;8967;47.984;7.842;2022-10-19T14:31:28;19.90;;;11.40;;
17696;SDS011;8967;47.984;7.842;2022-10-19T14:34:00;14.63;;;10.85;;
17696;SDS011;8967;47.984;7.842;2022-10-19T14:36:29;15.23;;;11.13;;
17696;SDS011;8967;47.984;7.842;2022-10-19T14:39:01;20.65;;;13.23;;
17696;SDS011;8967;47.984;7.842;2022-10-19T14:41:29;18.23;;;12.25;;
17696;SDS011;8967;47.984;7.842;2022-10-19T14:43:58;18.77;;;12.77;;
17696;SDS011;8967;47.984;7.842;2022-10-19T14:46:29;20.17;;;13.10;;
17696;SDS011;8967;47.984;7.842;2022-10-19T14:48:58;18.05;;;11.30;;
17696;SDS011;8967;47.984;7.842;2022-10-19T14:51:32;23.50;;;15.32;;
17696;SDS011;8967;47.984;7.842;2022-10-19T14:54:04;25.38;;;12.95;;
17696;SDS011;8967;47.984;7.842;2022-10-19T14:56:35;18.60;;;13.30;;
17696;SDS011;8967;47.984;7.842;2022-10-19T14:59:14;18.85;;;12.98;;
17696;SDS011;8967;47.984;7.842;2022-10-19T15:01:51;22.38;;;12.55;;
17696;SDS011;8967;47.984;7.842;2022-10-19T15:04:20;18.48;;;12.50;;
17696;SDS011;8967;47.984;7.842;2022-10-19T15:06:52;22.60;;;13.57;;
17696;SDS011;8967;47.984;7.842;2022-10-19T15:09:22;18.30;;;12.30;;
17696;SDS011;8967;47.984;7.842;2022-10-19T15:11:52;15.10;;;11.63;;
17696;SDS011;8967;47.984;7.842;2022-10-19T15:14:25;19.02;;;12.75;;
17696;SDS011;8967;47.984;7.842;2022-10-19T15:16:58;17.92;;;11.48;;
17696;SDS011;8967;47.984;7.842;2022-10-19T15:19:27;26.58;;;13.35;;
17696;SDS011;8967;47.984;7.842;2022-10-19T15:22:10;17.65;;;12.68;;
17696;SDS011;8967;47.984;7.842;2022-10-19T15:24:52;16.50;;;10.90;;
17696;SDS011;8967;47.984;7.842;2022-10-19T15:27:28;19.40;;;12.75;;
17696;SDS011;8967;47.984;7.842;2022-10-19T15:29:57;24.50;;;13.90;;
17696;SDS011;8967;47.984;7.842;2022-10-19T15:32:30;19.02;;;11.98;;
17696;SDS011;8967;47.984;7.842;2022-10-19T15:35:09;18.83;;;11.40;;
17696;SDS011;8967;47.984;7.842;2022-10-19T15:37:38;14.95;;;10.50;;